createdAt,value
2022-07-31T00:00:26.946Z,14.49
2022-07-31T00:03:05.729Z,14.59
2022-07-31T00:05:38.671Z,14.59
2022-07-31T00:08:10.453Z,14.62
2022-07-31T00:10:38.715Z,14.59
2022-07-31T00:13:05.744Z,14.54
2022-07-31T00:15:32.788Z,14.44
2022-07-31T00:18:02.246Z,14.44
2022-07-31T00:20:30.490Z,14.29
2022-07-31T00:22:58.704Z,14.16
2022-07-31T00:25:27.461Z,14.05
2022-07-31T00:27:54.599Z,13.82
2022-07-31T00:30:22.200Z,13.91
2022-07-31T00:32:51.924Z,13.78
2022-07-31T00:35:19.100Z,14.02
2022-07-31T00:37:46.254Z,14.21
2022-07-31T00:40:16.768Z,14.23
2022-07-31T00:42:43.730Z,14.40
2022-07-31T00:45:13.726Z,14.45
2022-07-31T00:47:41.191Z,14.49
2022-07-31T00:50:11.676Z,14.46
2022-07-31T00:52:39.951Z,14.33
2022-07-31T00:55:08.204Z,14.46
2022-07-31T00:57:37.540Z,14.29
2022-07-31T01:00:05.948Z,14.25
2022-07-31T01:02:35.024Z,14.25
2022-07-31T01:05:01.911Z,14.37
2022-07-31T01:07:28.885Z,14.41
2022-07-31T01:09:56.761Z,14.23
2022-07-31T01:12:29.739Z,14.36
2022-07-31T01:15:02.043Z,14.21
2022-07-31T01:17:35.098Z,14.13
2022-07-31T01:20:02.736Z,13.94
2022-07-31T01:22:50.830Z,14.00
2022-07-31T01:25:37.111Z,13.92
2022-07-31T01:28:16.515Z,14.07
2022-07-31T01:30:56.161Z,13.98
2022-07-31T01:33:42.579Z,13.71
2022-07-31T01:36:14.919Z,13.79
2022-07-31T01:38:47.814Z,13.75
2022-07-31T01:41:18.084Z,13.76
2022-07-31T01:43:50.040Z,13.65
2022-07-31T01:46:22.173Z,13.53
2022-07-31T01:48:50.387Z,13.49
2022-07-31T01:51:19.664Z,13.47
2022-07-31T01:53:52.146Z,13.44
2022-07-31T01:56:20.518Z,13.46
2022-07-31T01:58:50.400Z,13.43
2022-07-31T02:01:24.154Z,13.58
2022-07-31T02:03:56.214Z,13.61
2022-07-31T02:06:27.079Z,13.45
2022-07-31T02:08:55.479Z,13.48
2022-07-31T02:11:23.518Z,13.48
2022-07-31T02:13:54.416Z,13.37
2022-07-31T02:16:26.435Z,13.29
2022-07-31T02:18:57.296Z,13.23
2022-07-31T02:21:26.287Z,13.20
2022-07-31T02:23:56.329Z,13.34
2022-07-31T02:26:28.217Z,13.36
2022-07-31T02:28:57.262Z,13.25
2022-07-31T02:31:28.488Z,13.30
2022-07-31T02:33:55.568Z,13.23
2022-07-31T02:36:24.149Z,13.27
2022-07-31T02:38:54.200Z,13.20
2022-07-31T02:41:26.615Z,13.11
2022-07-31T02:43:56.392Z,13.11
2022-07-31T02:46:26.359Z,13.03
2022-07-31T02:48:54.292Z,12.98
2022-07-31T02:51:23.482Z,12.74
2022-07-31T02:53:51.360Z,12.75
2022-07-31T02:56:18.840Z,12.59
2022-07-31T02:58:46.210Z,12.48
2022-07-31T03:01:16.304Z,12.71
2022-07-31T03:03:45.636Z,12.46
2022-07-31T03:06:12.837Z,12.40
2022-07-31T03:08:40.340Z,12.38
2022-07-31T03:11:08.551Z,12.55
2022-07-31T03:13:37.199Z,12.52
2022-07-31T03:16:07.263Z,12.68
2022-07-31T03:18:35.695Z,12.64
2022-07-31T03:21:06.630Z,12.78
2022-07-31T03:23:36.306Z,12.82
2022-07-31T03:26:08.104Z,12.62
2022-07-31T03:28:35.359Z,12.54
2022-07-31T03:31:03.874Z,12.56
2022-07-31T03:33:36.490Z,12.63
2022-07-31T03:36:10.686Z,12.69
2022-07-31T03:38:42.187Z,12.62
2022-07-31T03:41:11.737Z,12.54
2022-07-31T03:43:48.147Z,12.87
2022-07-31T03:46:18.701Z,12.99
2022-07-31T03:48:50.267Z,13.06
2022-07-31T03:51:21.758Z,12.98
2022-07-31T03:53:49.782Z,12.86
2022-07-31T03:56:18.937Z,13.06
2022-07-31T03:58:46.075Z,13.12
2022-07-31T04:01:19.542Z,13.26
2022-07-31T04:03:50.195Z,13.35
2022-07-31T04:06:19.395Z,13.47
2022-07-31T04:08:48.067Z,13.51
2022-07-31T04:11:15.391Z,13.58
2022-07-31T04:13:42.900Z,13.64
2022-07-31T04:16:11.639Z,13.59
2022-07-31T04:18:47.194Z,13.54
2022-07-31T04:21:21.390Z,13.55
2022-07-31T04:23:50.896Z,13.55
2022-07-31T04:26:26.148Z,13.60
2022-07-31T04:28:54.352Z,13.67
2022-07-31T04:31:21.875Z,13.73
2022-07-31T04:33:55.940Z,13.79
2022-07-31T04:36:29.812Z,13.85
2022-07-31T04:39:00.836Z,13.79
2022-07-31T04:41:33.343Z,13.91
2022-07-31T04:44:00.554Z,13.97
2022-07-31T04:46:27.487Z,14.02
2022-07-31T04:48:56.578Z,13.93
2022-07-31T04:51:28.012Z,14.07
2022-07-31T04:53:56.362Z,14.10
2022-07-31T04:56:26.124Z,14.08
2022-07-31T04:58:56.642Z,14.03
2022-07-31T05:01:26.274Z,14.02
2022-07-31T05:03:54.739Z,13.97
2022-07-31T05:06:23.141Z,14.06
2022-07-31T05:08:51.207Z,14.09
2022-07-31T05:11:21.508Z,14.03
2022-07-31T05:13:50.389Z,14.00
2022-07-31T05:16:19.176Z,14.01
2022-07-31T05:18:47.946Z,13.94
2022-07-31T05:21:19.446Z,13.98
2022-07-31T05:23:48.063Z,14.02
2022-07-31T05:26:25.132Z,14.05
2022-07-31T05:28:58.411Z,14.05
2022-07-31T05:31:27.411Z,14.47
2022-07-31T05:33:54.807Z,15.38
2022-07-31T05:36:25.674Z,16.44
2022-07-31T05:38:52.907Z,18.08
2022-07-31T05:41:20.252Z,19.26
2022-07-31T05:43:48.298Z,19.99
2022-07-31T05:46:18.162Z,20.74
2022-07-31T05:48:47.503Z,21.32
2022-07-31T05:51:14.904Z,21.54
2022-07-31T05:53:45.753Z,21.94
2022-07-31T05:56:15.699Z,22.26
2022-07-31T05:58:48.294Z,22.58
2022-07-31T06:01:18.529Z,22.65
2022-07-31T06:03:51.515Z,22.39
2022-07-31T06:06:21.476Z,22.34
2022-07-31T06:08:51.231Z,22.37
2022-07-31T06:11:19.623Z,22.26
2022-07-31T06:13:48.570Z,22.13
2022-07-31T06:16:20.966Z,22.07
2022-07-31T06:18:50.425Z,22.00
2022-07-31T06:23:44.678Z,21.76
2022-07-31T06:26:12.770Z,21.71
2022-07-31T06:28:47.643Z,21.78
2022-07-31T06:31:20.092Z,21.42
2022-07-31T06:33:53.663Z,21.73
2022-07-31T06:36:24.322Z,21.73
2022-07-31T06:38:53.712Z,21.79
2022-07-31T06:41:23.446Z,21.85
2022-07-31T06:43:55.561Z,21.79
2022-07-31T06:46:24.223Z,21.79
2022-07-31T06:48:51.648Z,22.05
2022-07-31T06:51:35.024Z,22.35
2022-07-31T06:54:06.065Z,22.62
2022-07-31T06:56:34.756Z,22.91
2022-07-31T06:59:03.431Z,23.09
2022-07-31T07:01:32.452Z,22.98
2022-07-31T07:03:59.818Z,23.06
2022-07-31T07:06:27.565Z,23.08
2022-07-31T07:08:55.101Z,23.40
2022-07-31T07:11:22.814Z,23.67
2022-07-31T07:13:51.640Z,23.86
2022-07-31T07:16:20.150Z,23.46
2022-07-31T07:18:49.379Z,23.79
2022-07-31T07:21:20.561Z,24.10
2022-07-31T07:23:58.799Z,24.28
2022-07-31T07:26:26.732Z,24.18
2022-07-31T07:28:57.641Z,24.17
2022-07-31T07:31:27.026Z,24.43
2022-07-31T07:33:56.446Z,23.62
2022-07-31T07:36:27.953Z,24.33
2022-07-31T07:38:56.021Z,24.76
2022-07-31T07:41:28.610Z,25.14
2022-07-31T07:43:56.915Z,25.22
2022-07-31T07:46:26.176Z,25.30
2022-07-31T07:48:57.887Z,25.34
2022-07-31T07:51:28.813Z,25.45
2022-07-31T07:53:56.765Z,25.46
2022-07-31T07:56:25.106Z,25.47
2022-07-31T07:58:52.186Z,25.55
2022-07-31T08:01:25.605Z,25.43
2022-07-31T08:04:00.371Z,25.27
2022-07-31T08:06:38.847Z,25.62
2022-07-31T08:09:06.803Z,25.46
2022-07-31T08:11:35.145Z,25.03
2022-07-31T08:14:02.104Z,24.47
2022-07-31T08:16:32.513Z,25.02
2022-07-31T08:19:02.886Z,24.36
2022-07-31T08:21:31.835Z,24.51
2022-07-31T08:24:00.677Z,24.90
2022-07-31T08:26:28.320Z,25.24
2022-07-31T08:28:58.143Z,25.15
2022-07-31T08:31:25.305Z,25.14
2022-07-31T08:33:53.278Z,25.48
2022-07-31T08:36:23.680Z,25.20
2022-07-31T08:38:51.570Z,25.40
2022-07-31T08:41:21.804Z,25.71
2022-07-31T08:44:02.029Z,25.50
2022-07-31T08:46:33.407Z,25.72
2022-07-31T08:49:02.899Z,25.98
2022-07-31T08:51:51.167Z,26.10
2022-07-31T08:54:22.824Z,26.41
2022-07-31T08:56:50.371Z,26.00
2022-07-31T08:59:20.907Z,26.49
2022-07-31T09:01:49.514Z,26.85
2022-07-31T09:04:17.671Z,27.10
2022-07-31T09:06:48.481Z,26.84
2022-07-31T09:09:20.650Z,27.19
2022-07-31T09:11:49.349Z,26.84
2022-07-31T09:14:26.210Z,26.48
2022-07-31T09:16:53.472Z,26.80
2022-07-31T09:19:52.688Z,26.49
2022-07-31T09:22:23.607Z,26.74
2022-07-31T09:24:52.493Z,26.42
2022-07-31T09:27:20.172Z,25.52
2022-07-31T09:29:50.389Z,25.91
2022-07-31T09:32:19.250Z,25.23
2022-07-31T09:34:47.739Z,24.57
2022-07-31T09:37:17.723Z,24.74
2022-07-31T09:39:55.018Z,25.18
2022-07-31T09:42:34.617Z,25.68
2022-07-31T09:45:01.948Z,25.71
2022-07-31T09:47:43.510Z,26.23
2022-07-31T09:50:11.151Z,26.45
2022-07-31T09:52:43.256Z,26.75
2022-07-31T09:55:18.944Z,26.52
2022-07-31T09:57:56.749Z,26.53
2022-07-31T10:00:29.437Z,25.64
2022-07-31T10:02:57.269Z,25.65
2022-07-31T10:05:30.417Z,26.21
2022-07-31T10:08:01.886Z,26.63
2022-07-31T10:10:34.738Z,26.23
2022-07-31T10:13:15.874Z,26.60
2022-07-31T10:15:49.752Z,26.40
2022-07-31T10:18:35.829Z,26.10
2022-07-31T10:21:06.957Z,26.23
2022-07-31T10:23:39.125Z,26.17
2022-07-31T10:26:08.745Z,26.11
2022-07-31T10:28:38.702Z,26.15
2022-07-31T10:31:11.654Z,26.02
2022-07-31T10:33:44.088Z,25.96
2022-07-31T10:36:18.438Z,26.04
2022-07-31T10:38:51.808Z,26.43
2022-07-31T10:41:27.137Z,26.67
2022-07-31T10:44:02.014Z,27.09
2022-07-31T10:46:30.696Z,26.92
2022-07-31T10:48:58.334Z,26.59
2022-07-31T10:51:37.031Z,26.81
2022-07-31T10:54:05.432Z,26.95
2022-07-31T10:56:43.890Z,27.15
2022-07-31T10:59:15.581Z,27.40
2022-07-31T11:01:52.827Z,27.26
2022-07-31T11:04:26.942Z,27.54
2022-07-31T11:06:55.673Z,27.62
2022-07-31T11:09:22.865Z,27.74
2022-07-31T11:11:59.476Z,28.08
2022-07-31T11:14:34.810Z,28.25
2022-07-31T11:17:04.049Z,27.92
2022-07-31T11:19:41.140Z,27.57
2022-07-31T11:22:31.488Z,27.50
2022-07-31T11:25:02.071Z,27.20
2022-07-31T11:27:37.376Z,27.14
2022-07-31T11:30:12.489Z,26.77
2022-07-31T11:32:47.148Z,26.43
2022-07-31T11:35:24.654Z,26.36
2022-07-31T11:40:28.375Z,25.85
2022-07-31T11:43:25.159Z,26.17
2022-07-31T11:48:39.002Z,25.50
2022-07-31T11:51:19.862Z,25.71
2022-07-31T11:53:56.546Z,25.69
2022-07-31T11:56:29.039Z,25.22
2022-07-31T11:59:01.052Z,25.16
2022-07-31T12:01:33.765Z,25.33
2022-07-31T12:04:08.545Z,25.39
2022-07-31T12:06:40.058Z,25.46
2022-07-31T12:10:02.575Z,25.20
2022-07-31T12:12:04.479Z,25.10
2022-07-31T12:14:44.274Z,25.19
2022-07-31T12:17:19.931Z,24.90
2022-07-31T12:19:47.919Z,25.57
2022-07-31T12:22:22.835Z,25.74
2022-07-31T12:25:00.599Z,25.53
2022-07-31T12:27:28.866Z,25.51
2022-07-31T12:30:00.006Z,25.25
2022-07-31T12:32:31.628Z,25.09
2022-07-31T12:35:02.371Z,24.79
2022-07-31T12:37:30.485Z,24.51
2022-07-31T12:40:00.725Z,24.49
2022-07-31T12:42:35.263Z,24.30
2022-07-31T12:45:19.402Z,24.34
2022-07-31T12:47:54.383Z,23.97
2022-07-31T12:50:25.458Z,24.03
2022-07-31T12:55:48.434Z,24.00
2022-07-31T12:58:15.855Z,24.03
2022-07-31T13:00:45.960Z,24.49
2022-07-31T13:03:12.962Z,24.57
2022-07-31T13:05:40.219Z,24.52
2022-07-31T13:08:10.246Z,24.39
2022-07-31T13:10:38.610Z,24.45
2022-07-31T13:13:07.021Z,24.45
2022-07-31T13:15:35.829Z,24.77
2022-07-31T13:18:04.597Z,24.60
2022-07-31T13:20:34.118Z,24.66
2022-07-31T13:23:01.043Z,24.23
2022-07-31T13:28:16.958Z,24.10
2022-07-31T13:30:45.120Z,24.05
2022-07-31T13:33:17.589Z,23.93
2022-07-31T13:35:46.256Z,23.62
2022-07-31T13:38:21.398Z,23.55
2022-07-31T13:40:49.473Z,23.55
2022-07-31T13:43:20.013Z,23.48
2022-07-31T13:45:47.936Z,23.22
2022-07-31T13:48:22.303Z,23.04
2022-07-31T13:50:49.517Z,22.94
2022-07-31T13:53:22.858Z,22.92
2022-07-31T13:55:51.273Z,22.68
2022-07-31T13:58:18.190Z,22.96
2022-07-31T14:00:47.078Z,23.12
2022-07-31T14:03:21.163Z,23.23
2022-07-31T14:05:53.799Z,23.58
2022-07-31T14:08:33.199Z,23.82
2022-07-31T14:11:13.858Z,24.27
2022-07-31T14:13:42.713Z,24.47
2022-07-31T14:16:11.410Z,24.63
2022-07-31T14:18:44.121Z,24.77
2022-07-31T14:21:16.511Z,24.98
2022-07-31T14:23:43.834Z,25.16
2022-07-31T14:26:13.636Z,24.98
2022-07-31T14:28:43.876Z,24.54
2022-07-31T14:31:17.533Z,24.36
2022-07-31T14:33:50.846Z,24.57
2022-07-31T14:36:24.754Z,24.81
2022-07-31T14:38:52.675Z,24.97
2022-07-31T14:41:22.936Z,25.00
2022-07-31T14:43:51.674Z,24.89
2022-07-31T14:46:21.933Z,25.04
2022-07-31T14:48:49.240Z,25.11
2022-07-31T14:51:19.505Z,25.28
2022-07-31T14:53:48.397Z,25.40
2022-07-31T14:56:30.531Z,25.26
2022-07-31T14:59:05.182Z,25.07
2022-07-31T15:01:39.295Z,25.45
2022-07-31T15:04:06.767Z,25.32
2022-07-31T15:06:53.218Z,25.51
2022-07-31T15:09:27.636Z,25.42
2022-07-31T15:12:01.830Z,25.60
2022-07-31T15:14:30.717Z,25.81
2022-07-31T15:17:07.878Z,25.38
2022-07-31T15:19:35.075Z,25.63
2022-07-31T15:22:10.125Z,25.55
2022-07-31T15:24:48.487Z,25.75
2022-07-31T15:27:18.271Z,25.47
2022-07-31T15:30:04.297Z,25.34
2022-07-31T15:32:34.127Z,25.39
2022-07-31T15:35:01.581Z,25.15
2022-07-31T15:37:30.854Z,25.38
2022-07-31T15:40:01.983Z,25.10
2022-07-31T15:42:38.558Z,25.33
2022-07-31T15:45:08.360Z,25.25
2022-07-31T15:47:36.737Z,25.39
2022-07-31T15:50:04.748Z,25.35
2022-07-31T15:52:32.397Z,25.35
2022-07-31T15:55:01.437Z,25.34
2022-07-31T15:57:28.355Z,24.94
2022-07-31T16:00:02.283Z,24.67
2022-07-31T16:02:29.409Z,24.79
2022-07-31T16:04:58.650Z,24.87
2022-07-31T16:08:30.447Z,24.56
2022-07-31T16:10:20.589Z,24.53
2022-07-31T16:12:48.956Z,24.12
2022-07-31T16:15:17.901Z,23.99
2022-07-31T16:17:45.812Z,23.89
2022-07-31T16:20:26.415Z,23.71
2022-07-31T16:22:56.451Z,23.47
2022-07-31T16:25:25.726Z,23.43
2022-07-31T16:27:56.269Z,23.26
2022-07-31T16:30:24.123Z,23.01
2022-07-31T16:32:51.943Z,22.94
2022-07-31T16:35:20.179Z,22.83
2022-07-31T16:37:53.318Z,22.81
2022-07-31T16:40:29.831Z,22.66
2022-07-31T16:43:47.786Z,22.45
2022-07-31T16:45:54.366Z,22.26
2022-07-31T16:48:25.337Z,22.10
2022-07-31T16:50:55.120Z,22.17
2022-07-31T16:54:09.956Z,22.03
2022-07-31T16:56:10.583Z,21.93
2022-07-31T16:58:50.280Z,21.95
2022-07-31T17:01:57.508Z,21.88
2022-07-31T17:04:13.237Z,21.94
2022-07-31T17:06:45.573Z,22.05
2022-07-31T17:09:15.777Z,22.13
2022-07-31T17:11:49.061Z,22.23
2022-07-31T17:14:18.914Z,22.31
2022-07-31T17:16:52.067Z,22.33
2022-07-31T17:19:42.998Z,22.37
2022-07-31T17:22:17.767Z,22.41
2022-07-31T17:24:49.618Z,22.42
2022-07-31T17:27:17.342Z,22.47
2022-07-31T17:29:46.375Z,22.50
2022-07-31T17:32:15.203Z,22.50
2022-07-31T17:34:42.376Z,22.35
2022-07-31T17:37:16.224Z,22.30
2022-07-31T17:39:44.126Z,22.18
2022-07-31T17:42:11.373Z,22.00
2022-07-31T17:44:39.815Z,21.84
2022-07-31T17:47:09.730Z,21.46
2022-07-31T17:49:41.771Z,21.41
2022-07-31T17:52:13.233Z,21.34
2022-07-31T17:54:44.468Z,21.15
2022-07-31T17:57:11.439Z,20.99
2022-07-31T17:59:44.218Z,20.84
2022-07-31T18:02:14.427Z,20.69
2022-07-31T18:04:43.042Z,20.57
2022-07-31T18:07:12.231Z,20.39
2022-07-31T18:09:40.196Z,20.25
2022-07-31T18:12:15.101Z,20.25
2022-07-31T18:14:42.692Z,20.05
2022-07-31T18:17:12.145Z,20.10
2022-07-31T18:19:41.111Z,19.91
2022-07-31T18:22:08.347Z,19.95
2022-07-31T18:24:40.520Z,19.78
2022-07-31T18:27:10.018Z,19.73
2022-07-31T18:29:43.245Z,19.60
2022-07-31T18:32:30.936Z,19.52
2022-07-31T18:34:59.789Z,19.48
2022-07-31T18:37:27.680Z,19.33
2022-07-31T18:39:55.569Z,19.33
2022-07-31T18:42:23.625Z,19.45
2022-07-31T18:44:52.566Z,19.42
2022-07-31T18:47:19.975Z,19.22
2022-07-31T18:51:01.033Z,19.26
2022-07-31T18:52:37.907Z,19.27
2022-07-31T18:55:06.945Z,19.16
2022-07-31T18:57:33.965Z,19.11
2022-07-31T19:00:01.446Z,19.04
2022-07-31T19:02:30.111Z,18.89
2022-07-31T19:04:57.201Z,18.73
2022-07-31T19:07:25.299Z,18.63
2022-07-31T19:09:53.530Z,18.31
2022-07-31T19:12:21.451Z,18.25
2022-07-31T19:14:48.337Z,18.25
2022-07-31T19:17:18.512Z,18.12
2022-07-31T19:19:54.987Z,18.09
2022-07-31T19:22:28.649Z,17.92
2022-07-31T19:24:57.076Z,17.90
2022-07-31T19:27:46.811Z,17.80
2022-07-31T19:30:12.137Z,17.58
2022-07-31T19:32:39.085Z,17.74
2022-07-31T19:35:08.346Z,17.77
2022-07-31T19:37:36.745Z,17.71
2022-07-31T19:40:07.502Z,17.57
2022-07-31T19:42:34.514Z,17.56
2022-07-31T19:45:02.569Z,17.50
2022-07-31T19:47:30.523Z,17.44
2022-07-31T19:49:59.993Z,17.52
2022-07-31T19:52:26.799Z,17.35
2022-07-31T19:54:53.984Z,17.17
2022-07-31T19:57:24.677Z,17.10
2022-07-31T19:59:51.859Z,16.90
2022-07-31T20:02:18.651Z,16.86
2022-07-31T20:04:46.757Z,16.56
2022-07-31T20:07:13.628Z,16.78
2022-07-31T20:09:40.694Z,16.84
2022-07-31T20:12:08.726Z,16.97
2022-07-31T20:14:37.777Z,16.94
2022-07-31T20:17:04.833Z,16.83
2022-07-31T20:19:31.930Z,16.72
2022-07-31T20:22:00.380Z,16.85
2022-07-31T20:24:27.563Z,16.90
2022-07-31T20:26:54.696Z,16.93
2022-07-31T20:29:21.867Z,17.00
2022-07-31T20:31:50.349Z,17.04
2022-07-31T20:34:17.223Z,17.04
2022-07-31T20:36:44.038Z,16.82
2022-07-31T20:39:10.892Z,16.83
2022-07-31T20:41:38.242Z,16.64
2022-07-31T20:44:07.017Z,16.64
2022-07-31T20:46:33.919Z,16.53
2022-07-31T20:49:03.419Z,16.52
2022-07-31T20:51:30.412Z,16.57
2022-07-31T20:53:57.422Z,16.53
2022-07-31T20:56:24.268Z,16.20
2022-07-31T20:58:52.760Z,15.90
2022-07-31T21:01:19.984Z,15.93
2022-07-31T21:03:49.481Z,15.95
2022-07-31T21:06:18.005Z,15.92
2022-07-31T21:08:45.211Z,15.71
2022-07-31T21:11:12.342Z,16.07
2022-07-31T21:13:41.275Z,16.43
2022-07-31T21:16:08.257Z,16.64
2022-07-31T21:18:37.902Z,16.65
2022-07-31T21:21:08.937Z,16.74
2022-07-31T21:23:37.347Z,16.83
2022-07-31T21:26:07.110Z,16.87
2022-07-31T21:28:34.407Z,16.87
2022-07-31T21:31:02.777Z,16.89
2022-07-31T21:33:29.952Z,16.81
2022-07-31T21:35:57.665Z,16.71
2022-07-31T21:38:24.658Z,16.50
2022-07-31T21:40:53.550Z,16.37
2022-07-31T21:43:22.579Z,16.36
2022-07-31T21:45:57.329Z,16.37
2022-07-31T21:48:28.050Z,16.54
2022-07-31T21:50:55.536Z,16.64
2022-07-31T21:53:22.506Z,16.90
2022-07-31T21:55:50.147Z,17.00
2022-07-31T21:58:20.643Z,17.00
2022-07-31T22:00:48.786Z,17.06
2022-07-31T22:03:15.736Z,17.13
2022-07-31T22:05:42.968Z,17.17
2022-07-31T22:08:09.836Z,17.24
2022-07-31T22:10:37.643Z,17.33
2022-07-31T22:13:04.770Z,17.37
2022-07-31T22:15:58.963Z,17.39
2022-07-31T22:18:20.565Z,17.41
2022-07-31T22:20:47.924Z,17.51
2022-07-31T22:23:15.270Z,17.54
2022-07-31T22:25:47.206Z,17.42
2022-07-31T22:28:15.429Z,17.43
2022-07-31T22:30:47.416Z,17.41
2022-07-31T22:33:15.729Z,17.27
2022-07-31T22:35:43.179Z,17.37
2022-07-31T22:38:10.655Z,17.31
2022-07-31T22:40:38.002Z,17.30
2022-07-31T22:44:09.558Z,17.16
2022-07-31T22:45:54.072Z,17.16
2022-07-31T22:48:24.444Z,17.16
2022-07-31T22:50:52.088Z,17.18
2022-07-31T22:53:19.258Z,17.08
2022-07-31T22:55:46.444Z,17.01
2022-07-31T22:58:13.768Z,17.09
2022-07-31T23:00:41.523Z,17.13
2022-07-31T23:03:09.840Z,16.94
2022-07-31T23:06:03.673Z,16.90
2022-07-31T23:08:23.811Z,16.84
2022-07-31T23:10:52.426Z,16.95
2022-07-31T23:13:19.299Z,16.90
2022-07-31T23:15:46.440Z,16.92
2022-07-31T23:18:14.706Z,16.96
2022-07-31T23:20:41.846Z,17.08
2022-07-31T23:23:08.715Z,17.10
2022-07-31T23:25:35.951Z,17.11
2022-07-31T23:28:05.254Z,16.84
2022-07-31T23:30:32.374Z,16.88
2022-07-31T23:33:00.407Z,16.86
2022-07-31T23:35:28.927Z,16.81
2022-07-31T23:37:55.787Z,16.83
2022-07-31T23:40:23.969Z,16.90
2022-07-31T23:42:50.907Z,16.77
2022-07-31T23:45:17.937Z,16.84
2022-07-31T23:47:46.993Z,16.83
2022-07-31T23:50:14.594Z,16.61
2022-07-31T23:52:44.504Z,16.65
2022-07-31T23:55:11.811Z,16.71
2022-07-31T23:57:40.041Z,16.77
